sensor_id;sensor_type;location;lat;lon;timestamp;P1;durP1;ratioP1;P2;durP2;ratioP2
13406;SDS011;6774;48.208;10.766;2023-06-10T00:01:06;6.83;;;6.43;;
13406;SDS011;6774;48.208;10.766;2023-06-10T00:03:33;6.33;;;5.93;;
13406;SDS011;6774;48.208;10.766;2023-06-10T00:06:03;6.17;;;5.77;;
13406;SDS011;6774;48.208;10.766;2023-06-10T00:08:31;5.20;;;4.87;;
13406;SDS011;6774;48.208;10.766;2023-06-10T00:11:00;4.87;;;4.67;;
13406;SDS011;6774;48.208;10.766;2023-06-10T00:13:28;5.03;;;4.83;;
13406;SDS011;6774;48.208;10.766;2023-06-10T00:15:56;6.03;;;5.63;;
13406;SDS011;6774;48.208;10.766;2023-06-10T00:18:24;6.03;;;5.73;;
13406;SDS011;6774;48.208;10.766;2023-06-10T00:20:53;6.80;;;6.50;;
13406;SDS011;6774;48.208;10.766;2023-06-10T00:23:21;6.27;;;5.93;;
13406;SDS011;6774;48.208;10.766;2023-06-10T00:25:51;7.17;;;6.43;;
13406;SDS011;6774;48.208;10.766;2023-06-10T00:28:20;6.67;;;6.10;;
13406;SDS011;6774;48.208;10.766;2023-06-10T00:30:48;6.30;;;6.00;;
13406;SDS011;6774;48.208;10.766;2023-06-10T00:33:16;6.73;;;6.33;;
13406;SDS011;6774;48.208;10.766;2023-06-10T00:35:43;5.83;;;5.53;;
13406;SDS011;6774;48.208;10.766;2023-06-10T00:38:12;7.37;;;6.87;;
13406;SDS011;6774;48.208;10.766;2023-06-10T00:40:42;6.73;;;6.33;;
13406;SDS011;6774;48.208;10.766;2023-06-10T00:43:10;5.83;;;5.47;;
13406;SDS011;6774;48.208;10.766;2023-06-10T00:45:38;6.50;;;6.13;;
13406;SDS011;6774;48.208;10.766;2023-06-10T00:48:06;5.80;;;5.50;;
13406;SDS011;6774;48.208;10.766;2023-06-10T00:50:34;6.37;;;5.97;;
13406;SDS011;6774;48.208;10.766;2023-06-10T00:53:05;7.73;;;7.33;;
13406;SDS011;6774;48.208;10.766;2023-06-10T00:55:33;5.73;;;5.43;;
13406;SDS011;6774;48.208;10.766;2023-06-10T00:58:02;8.47;;;7.80;;
13406;SDS011;6774;48.208;10.766;2023-06-10T01:00:31;6.53;;;6.13;;
13406;SDS011;6774;48.208;10.766;2023-06-10T01:03:02;6.20;;;5.90;;
13406;SDS011;6774;48.208;10.766;2023-06-10T01:05:34;6.73;;;6.33;;
13406;SDS011;6774;48.208;10.766;2023-06-10T01:08:03;7.37;;;6.70;;
13406;SDS011;6774;48.208;10.766;2023-06-10T01:10:38;5.27;;;4.97;;
13406;SDS011;6774;48.208;10.766;2023-06-10T01:13:10;5.07;;;4.83;;
13406;SDS011;6774;48.208;10.766;2023-06-10T01:15:39;6.57;;;6.17;;
13406;SDS011;6774;48.208;10.766;2023-06-10T01:18:09;5.57;;;5.27;;
13406;SDS011;6774;48.208;10.766;2023-06-10T01:20:42;6.43;;;6.03;;
13406;SDS011;6774;48.208;10.766;2023-06-10T01:23:14;5.60;;;5.17;;
13406;SDS011;6774;48.208;10.766;2023-06-10T01:25:45;5.97;;;5.67;;
13406;SDS011;6774;48.208;10.766;2023-06-10T01:28:18;5.13;;;4.83;;
13406;SDS011;6774;48.208;10.766;2023-06-10T01:30:53;6.03;;;5.73;;
13406;SDS011;6774;48.208;10.766;2023-06-10T01:33:28;7.00;;;6.60;;
13406;SDS011;6774;48.208;10.766;2023-06-10T01:36:00;6.67;;;6.17;;
13406;SDS011;6774;48.208;10.766;2023-06-10T01:38:33;5.80;;;5.50;;
13406;SDS011;6774;48.208;10.766;2023-06-10T01:41:05;6.63;;;6.23;;
13406;SDS011;6774;48.208;10.766;2023-06-10T01:43:33;6.97;;;6.47;;
13406;SDS011;6774;48.208;10.766;2023-06-10T01:46:01;6.10;;;5.67;;
13406;SDS011;6774;48.208;10.766;2023-06-10T01:48:30;6.93;;;6.53;;
13406;SDS011;6774;48.208;10.766;2023-06-10T01:50:58;7.20;;;6.77;;
13406;SDS011;6774;48.208;10.766;2023-06-10T01:53:26;7.80;;;7.20;;
13406;SDS011;6774;48.208;10.766;2023-06-10T01:55:55;6.90;;;6.40;;
13406;SDS011;6774;48.208;10.766;2023-06-10T01:58:23;7.07;;;6.67;;
13406;SDS011;6774;48.208;10.766;2023-06-10T02:00:51;7.03;;;6.53;;
13406;SDS011;6774;48.208;10.766;2023-06-10T02:03:19;5.73;;;5.40;;
13406;SDS011;6774;48.208;10.766;2023-06-10T02:05:47;6.27;;;5.87;;
13406;SDS011;6774;48.208;10.766;2023-06-10T02:08:15;5.40;;;5.10;;
13406;SDS011;6774;48.208;10.766;2023-06-10T02:10:43;6.73;;;6.33;;
13406;SDS011;6774;48.208;10.766;2023-06-10T02:13:12;6.63;;;6.33;;
13406;SDS011;6774;48.208;10.766;2023-06-10T02:15:39;6.70;;;6.30;;
13406;SDS011;6774;48.208;10.766;2023-06-10T02:18:07;5.67;;;5.37;;
13406;SDS011;6774;48.208;10.766;2023-06-10T02:20:37;5.90;;;5.50;;
13406;SDS011;6774;48.208;10.766;2023-06-10T02:23:04;5.33;;;5.03;;
13406;SDS011;6774;48.208;10.766;2023-06-10T02:25:32;5.90;;;5.60;;
13406;SDS011;6774;48.208;10.766;2023-06-10T02:28:00;6.03;;;5.73;;
13406;SDS011;6774;48.208;10.766;2023-06-10T02:30:31;6.13;;;5.83;;
13406;SDS011;6774;48.208;10.766;2023-06-10T02:32:59;6.17;;;5.77;;
13406;SDS011;6774;48.208;10.766;2023-06-10T02:35:27;5.47;;;5.17;;
13406;SDS011;6774;48.208;10.766;2023-06-10T02:37:55;7.17;;;6.40;;
13406;SDS011;6774;48.208;10.766;2023-06-10T02:40:23;6.40;;;6.10;;
13406;SDS011;6774;48.208;10.766;2023-06-10T02:42:51;6.60;;;6.10;;
13406;SDS011;6774;48.208;10.766;2023-06-10T02:45:19;5.90;;;5.60;;
13406;SDS011;6774;48.208;10.766;2023-06-10T02:47:48;6.00;;;5.50;;
13406;SDS011;6774;48.208;10.766;2023-06-10T02:50:17;5.87;;;5.47;;
13406;SDS011;6774;48.208;10.766;2023-06-10T02:53:09;5.77;;;5.40;;
13406;SDS011;6774;48.208;10.766;2023-06-10T02:55:41;5.93;;;5.63;;
13406;SDS011;6774;48.208;10.766;2023-06-10T02:58:11;5.87;;;5.50;;
13406;SDS011;6774;48.208;10.766;2023-06-10T03:00:39;5.40;;;5.10;;
13406;SDS011;6774;48.208;10.766;2023-06-10T03:03:10;6.47;;;6.00;;
13406;SDS011;6774;48.208;10.766;2023-06-10T03:05:47;6.40;;;6.10;;
13406;SDS011;6774;48.208;10.766;2023-06-10T03:08:17;6.13;;;5.73;;
13406;SDS011;6774;48.208;10.766;2023-06-10T03:10:45;6.73;;;6.07;;
13406;SDS011;6774;48.208;10.766;2023-06-10T03:13:16;6.27;;;5.77;;
13406;SDS011;6774;48.208;10.766;2023-06-10T03:15:44;6.73;;;6.13;;
13406;SDS011;6774;48.208;10.766;2023-06-10T03:18:17;6.00;;;5.60;;
13406;SDS011;6774;48.208;10.766;2023-06-10T03:20:46;6.00;;;5.60;;
13406;SDS011;6774;48.208;10.766;2023-06-10T03:23:14;6.37;;;5.77;;
13406;SDS011;6774;48.208;10.766;2023-06-10T03:25:42;6.07;;;5.77;;
13406;SDS011;6774;48.208;10.766;2023-06-10T03:28:14;5.70;;;5.40;;
13406;SDS011;6774;48.208;10.766;2023-06-10T03:30:42;5.93;;;5.60;;
13406;SDS011;6774;48.208;10.766;2023-06-10T03:33:11;5.73;;;5.43;;
13406;SDS011;6774;48.208;10.766;2023-06-10T03:35:41;6.40;;;6.00;;
13406;SDS011;6774;48.208;10.766;2023-06-10T03:38:09;6.90;;;6.30;;
13406;SDS011;6774;48.208;10.766;2023-06-10T03:40:37;6.03;;;5.67;;
13406;SDS011;6774;48.208;10.766;2023-06-10T03:43:06;5.73;;;5.43;;
13406;SDS011;6774;48.208;10.766;2023-06-10T03:45:34;5.50;;;5.20;;
13406;SDS011;6774;48.208;10.766;2023-06-10T03:48:03;5.87;;;5.57;;
13406;SDS011;6774;48.208;10.766;2023-06-10T03:50:43;7.27;;;6.77;;
13406;SDS011;6774;48.208;10.766;2023-06-10T03:53:10;6.50;;;6.10;;
13406;SDS011;6774;48.208;10.766;2023-06-10T03:55:41;5.90;;;5.60;;
13406;SDS011;6774;48.208;10.766;2023-06-10T03:58:09;5.47;;;5.17;;
13406;SDS011;6774;48.208;10.766;2023-06-10T04:00:40;6.80;;;6.40;;
13406;SDS011;6774;48.208;10.766;2023-06-10T04:03:08;5.60;;;5.27;;
13406;SDS011;6774;48.208;10.766;2023-06-10T04:05:46;6.57;;;6.17;;
13406;SDS011;6774;48.208;10.766;2023-06-10T04:08:14;5.70;;;5.30;;
13406;SDS011;6774;48.208;10.766;2023-06-10T04:10:41;5.10;;;4.80;;
13406;SDS011;6774;48.208;10.766;2023-06-10T04:13:09;5.13;;;4.83;;
13406;SDS011;6774;48.208;10.766;2023-06-10T04:15:45;5.00;;;4.70;;
13406;SDS011;6774;48.208;10.766;2023-06-10T04:18:15;4.93;;;4.73;;
13406;SDS011;6774;48.208;10.766;2023-06-10T04:20:46;5.77;;;5.47;;
13406;SDS011;6774;48.208;10.766;2023-06-10T04:23:14;6.33;;;5.93;;
13406;SDS011;6774;48.208;10.766;2023-06-10T04:25:44;5.50;;;5.20;;
13406;SDS011;6774;48.208;10.766;2023-06-10T04:28:13;4.70;;;4.50;;
13406;SDS011;6774;48.208;10.766;2023-06-10T04:30:42;6.97;;;6.57;;
13406;SDS011;6774;48.208;10.766;2023-06-10T04:33:11;6.37;;;5.97;;
13406;SDS011;6774;48.208;10.766;2023-06-10T04:35:40;6.67;;;6.27;;
13406;SDS011;6774;48.208;10.766;2023-06-10T04:38:13;7.80;;;7.17;;
13406;SDS011;6774;48.208;10.766;2023-06-10T04:40:41;6.90;;;6.50;;
13406;SDS011;6774;48.208;10.766;2023-06-10T04:43:11;7.53;;;6.77;;
13406;SDS011;6774;48.208;10.766;2023-06-10T04:45:39;6.93;;;6.43;;
13406;SDS011;6774;48.208;10.766;2023-06-10T04:48:11;6.50;;;6.17;;
13406;SDS011;6774;48.208;10.766;2023-06-10T04:50:40;5.97;;;5.57;;
13406;SDS011;6774;48.208;10.766;2023-06-10T04:53:09;8.13;;;7.60;;
13406;SDS011;6774;48.208;10.766;2023-06-10T04:55:40;8.03;;;7.43;;
13406;SDS011;6774;48.208;10.766;2023-06-10T04:58:08;7.10;;;6.70;;
13406;SDS011;6774;48.208;10.766;2023-06-10T05:00:36;7.53;;;6.93;;
13406;SDS011;6774;48.208;10.766;2023-06-10T05:03:03;7.33;;;6.93;;
13406;SDS011;6774;48.208;10.766;2023-06-10T05:05:31;5.60;;;5.30;;
13406;SDS011;6774;48.208;10.766;2023-06-10T05:07:59;8.37;;;7.87;;
13406;SDS011;6774;48.208;10.766;2023-06-10T05:10:27;8.07;;;7.67;;
13406;SDS011;6774;48.208;10.766;2023-06-10T05:12:59;6.97;;;6.57;;
13406;SDS011;6774;48.208;10.766;2023-06-10T05:15:27;6.80;;;6.47;;
13406;SDS011;6774;48.208;10.766;2023-06-10T05:17:55;6.87;;;6.37;;
13406;SDS011;6774;48.208;10.766;2023-06-10T05:20:24;6.73;;;6.30;;
13406;SDS011;6774;48.208;10.766;2023-06-10T05:22:53;7.90;;;7.40;;
13406;SDS011;6774;48.208;10.766;2023-06-10T05:25:20;7.57;;;7.07;;
13406;SDS011;6774;48.208;10.766;2023-06-10T05:27:48;6.83;;;6.33;;
13406;SDS011;6774;48.208;10.766;2023-06-10T05:30:17;7.70;;;7.10;;
13406;SDS011;6774;48.208;10.766;2023-06-10T05:32:45;7.27;;;6.77;;
13406;SDS011;6774;48.208;10.766;2023-06-10T05:35:13;11.10;;;6.80;;
13406;SDS011;6774;48.208;10.766;2023-06-10T05:37:41;7.53;;;7.13;;
13406;SDS011;6774;48.208;10.766;2023-06-10T05:40:09;5.67;;;5.37;;
13406;SDS011;6774;48.208;10.766;2023-06-10T05:42:37;5.77;;;5.47;;
13406;SDS011;6774;48.208;10.766;2023-06-10T05:45:05;6.07;;;5.77;;
13406;SDS011;6774;48.208;10.766;2023-06-10T05:47:35;7.87;;;7.20;;
13406;SDS011;6774;48.208;10.766;2023-06-10T05:50:03;6.27;;;5.93;;
13406;SDS011;6774;48.208;10.766;2023-06-10T05:52:33;6.07;;;5.53;;
13406;SDS011;6774;48.208;10.766;2023-06-10T05:55:01;7.63;;;7.13;;
13406;SDS011;6774;48.208;10.766;2023-06-10T05:57:29;6.90;;;6.47;;
13406;SDS011;6774;48.208;10.766;2023-06-10T05:59:56;7.03;;;6.60;;
13406;SDS011;6774;48.208;10.766;2023-06-10T06:02:24;6.90;;;6.50;;
13406;SDS011;6774;48.208;10.766;2023-06-10T06:04:53;7.43;;;7.03;;
13406;SDS011;6774;48.208;10.766;2023-06-10T06:07:21;6.33;;;5.93;;
13406;SDS011;6774;48.208;10.766;2023-06-10T06:09:49;7.43;;;7.03;;
13406;SDS011;6774;48.208;10.766;2023-06-10T06:12:17;6.97;;;6.57;;
13406;SDS011;6774;48.208;10.766;2023-06-10T06:14:45;6.63;;;6.33;;
13406;SDS011;6774;48.208;10.766;2023-06-10T06:17:12;6.60;;;6.20;;
13406;SDS011;6774;48.208;10.766;2023-06-10T06:19:40;6.60;;;6.23;;
13406;SDS011;6774;48.208;10.766;2023-06-10T06:22:09;7.03;;;6.33;;
13406;SDS011;6774;48.208;10.766;2023-06-10T06:24:37;8.23;;;7.73;;
13406;SDS011;6774;48.208;10.766;2023-06-10T06:27:05;6.43;;;5.67;;
13406;SDS011;6774;48.208;10.766;2023-06-10T06:29:33;5.80;;;5.50;;
13406;SDS011;6774;48.208;10.766;2023-06-10T06:32:01;6.77;;;6.30;;
13406;SDS011;6774;48.208;10.766;2023-06-10T06:34:29;6.50;;;6.10;;
13406;SDS011;6774;48.208;10.766;2023-06-10T06:36:56;7.67;;;7.17;;
13406;SDS011;6774;48.208;10.766;2023-06-10T06:39:28;6.57;;;6.17;;
13406;SDS011;6774;48.208;10.766;2023-06-10T06:41:55;6.57;;;6.17;;
13406;SDS011;6774;48.208;10.766;2023-06-10T06:44:40;5.27;;;5.07;;
13406;SDS011;6774;48.208;10.766;2023-06-10T06:47:08;7.10;;;6.77;;
13406;SDS011;6774;48.208;10.766;2023-06-10T06:49:37;7.53;;;7.13;;
13406;SDS011;6774;48.208;10.766;2023-06-10T06:52:05;6.47;;;6.17;;
13406;SDS011;6774;48.208;10.766;2023-06-10T06:54:35;6.40;;;6.00;;
13406;SDS011;6774;48.208;10.766;2023-06-10T06:57:03;6.63;;;6.23;;
13406;SDS011;6774;48.208;10.766;2023-06-10T06:59:31;5.00;;;4.80;;
13406;SDS011;6774;48.208;10.766;2023-06-10T07:01:59;6.00;;;5.60;;
13406;SDS011;6774;48.208;10.766;2023-06-10T07:04:27;5.90;;;5.63;;
13406;SDS011;6774;48.208;10.766;2023-06-10T07:06:55;5.77;;;5.47;;
13406;SDS011;6774;48.208;10.766;2023-06-10T07:09:22;5.83;;;5.53;;
13406;SDS011;6774;48.208;10.766;2023-06-10T07:11:51;5.00;;;4.70;;
13406;SDS011;6774;48.208;10.766;2023-06-10T07:14:19;6.90;;;6.50;;
13406;SDS011;6774;48.208;10.766;2023-06-10T07:16:47;6.63;;;6.30;;
13406;SDS011;6774;48.208;10.766;2023-06-10T07:19:16;5.80;;;5.50;;
13406;SDS011;6774;48.208;10.766;2023-06-10T07:21:43;4.73;;;4.53;;
13406;SDS011;6774;48.208;10.766;2023-06-10T07:24:11;5.13;;;4.93;;
13406;SDS011;6774;48.208;10.766;2023-06-10T07:26:39;6.03;;;5.53;;
13406;SDS011;6774;48.208;10.766;2023-06-10T07:29:08;5.27;;;4.87;;
13406;SDS011;6774;48.208;10.766;2023-06-10T07:31:36;4.43;;;4.23;;
13406;SDS011;6774;48.208;10.766;2023-06-10T07:34:03;5.23;;;4.93;;
13406;SDS011;6774;48.208;10.766;2023-06-10T07:36:31;5.93;;;5.63;;
13406;SDS011;6774;48.208;10.766;2023-06-10T07:38:59;5.17;;;4.87;;
13406;SDS011;6774;48.208;10.766;2023-06-10T07:41:26;5.83;;;5.53;;
13406;SDS011;6774;48.208;10.766;2023-06-10T07:43:54;4.97;;;4.77;;
13406;SDS011;6774;48.208;10.766;2023-06-10T07:46:24;4.03;;;3.87;;
13406;SDS011;6774;48.208;10.766;2023-06-10T07:48:53;4.70;;;4.50;;
13406;SDS011;6774;48.208;10.766;2023-06-10T07:51:21;5.75;;;5.45;;
13406;SDS011;6774;48.208;10.766;2023-06-10T07:53:49;4.90;;;4.60;;
13406;SDS011;6774;48.208;10.766;2023-06-10T07:56:17;5.15;;;4.53;;
13406;SDS011;6774;48.208;10.766;2023-06-10T07:58:47;3.75;;;3.42;;
13406;SDS011;6774;48.208;10.766;2023-06-10T08:01:14;3.40;;;3.08;;
13406;SDS011;6774;48.208;10.766;2023-06-10T08:03:43;3.45;;;3.35;;
13406;SDS011;6774;48.208;10.766;2023-06-10T08:06:11;3.53;;;3.33;;
13406;SDS011;6774;48.208;10.766;2023-06-10T08:08:40;4.05;;;3.85;;
13406;SDS011;6774;48.208;10.766;2023-06-10T08:11:09;4.72;;;4.43;;
13406;SDS011;6774;48.208;10.766;2023-06-10T08:13:38;4.35;;;4.15;;
13406;SDS011;6774;48.208;10.766;2023-06-10T08:16:06;3.53;;;3.33;;
13406;SDS011;6774;48.208;10.766;2023-06-10T08:18:34;3.58;;;3.30;;
13406;SDS011;6774;48.208;10.766;2023-06-10T08:21:03;3.95;;;3.65;;
13406;SDS011;6774;48.208;10.766;2023-06-10T08:23:31;4.20;;;4.00;;
13406;SDS011;6774;48.208;10.766;2023-06-10T08:25:58;3.80;;;3.55;;
13406;SDS011;6774;48.208;10.766;2023-06-10T08:28:26;4.57;;;4.28;;
13406;SDS011;6774;48.208;10.766;2023-06-10T08:30:54;3.55;;;3.38;;
13406;SDS011;6774;48.208;10.766;2023-06-10T08:33:23;4.25;;;3.90;;
13406;SDS011;6774;48.208;10.766;2023-06-10T08:35:51;3.17;;;3.08;;
13406;SDS011;6774;48.208;10.766;2023-06-10T08:38:20;3.13;;;3.03;;
13406;SDS011;6774;48.208;10.766;2023-06-10T08:40:47;3.83;;;3.53;;
13406;SDS011;6774;48.208;10.766;2023-06-10T08:43:17;3.05;;;2.90;;
13406;SDS011;6774;48.208;10.766;2023-06-10T08:45:49;2.13;;;2.03;;
13406;SDS011;6774;48.208;10.766;2023-06-10T08:48:21;2.72;;;2.63;;
13406;SDS011;6774;48.208;10.766;2023-06-10T08:50:50;3.13;;;2.55;;
13406;SDS011;6774;48.208;10.766;2023-06-10T08:53:21;2.22;;;2.13;;
13406;SDS011;6774;48.208;10.766;2023-06-10T08:55:50;3.53;;;3.33;;
13406;SDS011;6774;48.208;10.766;2023-06-10T08:58:19;3.58;;;3.47;;
13406;SDS011;6774;48.208;10.766;2023-06-10T09:00:47;3.28;;;3.08;;
13406;SDS011;6774;48.208;10.766;2023-06-10T09:03:15;3.47;;;3.28;;
13406;SDS011;6774;48.208;10.766;2023-06-10T09:05:44;3.33;;;3.22;;
13406;SDS011;6774;48.208;10.766;2023-06-10T09:08:12;3.28;;;3.17;;
13406;SDS011;6774;48.208;10.766;2023-06-10T09:10:42;3.13;;;3.03;;
13406;SDS011;6774;48.208;10.766;2023-06-10T09:13:10;2.70;;;2.60;;
13406;SDS011;6774;48.208;10.766;2023-06-10T09:15:41;2.90;;;2.80;;
13406;SDS011;6774;48.208;10.766;2023-06-10T09:18:09;2.45;;;2.35;;
13406;SDS011;6774;48.208;10.766;2023-06-10T09:20:37;2.95;;;2.83;;
13406;SDS011;6774;48.208;10.766;2023-06-10T09:23:06;3.13;;;2.92;;
13406;SDS011;6774;48.208;10.766;2023-06-10T09:25:34;2.70;;;2.60;;
13406;SDS011;6774;48.208;10.766;2023-06-10T09:28:08;2.20;;;2.10;;
13406;SDS011;6774;48.208;10.766;2023-06-10T09:30:40;3.20;;;3.10;;
13406;SDS011;6774;48.208;10.766;2023-06-10T09:33:12;3.60;;;3.28;;
13406;SDS011;6774;48.208;10.766;2023-06-10T09:35:45;2.72;;;2.63;;
13406;SDS011;6774;48.208;10.766;2023-06-10T09:38:14;3.33;;;3.22;;
13406;SDS011;6774;48.208;10.766;2023-06-10T09:40:50;3.10;;;2.95;;
13406;SDS011;6774;48.208;10.766;2023-06-10T09:43:20;3.10;;;3.00;;
13406;SDS011;6774;48.208;10.766;2023-06-10T09:45:48;2.50;;;2.30;;
13406;SDS011;6774;48.208;10.766;2023-06-10T09:48:16;3.10;;;3.00;;
13406;SDS011;6774;48.208;10.766;2023-06-10T09:50:44;2.63;;;2.53;;
13406;SDS011;6774;48.208;10.766;2023-06-10T09:53:13;3.33;;;3.03;;
13406;SDS011;6774;48.208;10.766;2023-06-10T09:55:41;2.47;;;2.38;;
13406;SDS011;6774;48.208;10.766;2023-06-10T09:58:09;2.25;;;2.15;;
13406;SDS011;6774;48.208;10.766;2023-06-10T10:00:38;2.53;;;2.42;;
13406;SDS011;6774;48.208;10.766;2023-06-10T10:03:06;3.53;;;3.42;;
13406;SDS011;6774;48.208;10.766;2023-06-10T10:05:34;2.30;;;2.20;;
13406;SDS011;6774;48.208;10.766;2023-06-10T10:08:02;7.63;;;3.33;;
13406;SDS011;6774;48.208;10.766;2023-06-10T10:10:29;3.10;;;3.00;;
13406;SDS011;6774;48.208;10.766;2023-06-10T10:12:57;2.63;;;2.53;;
13406;SDS011;6774;48.208;10.766;2023-06-10T10:15:29;3.35;;;3.22;;
13406;SDS011;6774;48.208;10.766;2023-06-10T10:18:03;3.20;;;3.00;;
13406;SDS011;6774;48.208;10.766;2023-06-10T10:20:37;2.53;;;2.42;;
13406;SDS011;6774;48.208;10.766;2023-06-10T10:23:13;2.30;;;2.20;;
13406;SDS011;6774;48.208;10.766;2023-06-10T10:25:49;2.35;;;2.25;;
13406;SDS011;6774;48.208;10.766;2023-06-10T10:28:20;2.67;;;2.58;;
13406;SDS011;6774;48.208;10.766;2023-06-10T10:30:54;1.90;;;1.80;;
13406;SDS011;6774;48.208;10.766;2023-06-10T10:33:33;2.47;;;2.38;;
13406;SDS011;6774;48.208;10.766;2023-06-10T10:36:07;2.13;;;2.03;;
13406;SDS011;6774;48.208;10.766;2023-06-10T10:38:36;2.22;;;2.13;;
13406;SDS011;6774;48.208;10.766;2023-06-10T10:41:03;2.28;;;2.17;;
13406;SDS011;6774;48.208;10.766;2023-06-10T10:43:32;1.70;;;1.70;;
13406;SDS011;6774;48.208;10.766;2023-06-10T10:46:01;2.35;;;2.25;;
13406;SDS011;6774;48.208;10.766;2023-06-10T10:48:35;2.38;;;2.28;;
13406;SDS011;6774;48.208;10.766;2023-06-10T10:51:05;2.10;;;2.00;;
13406;SDS011;6774;48.208;10.766;2023-06-10T10:53:33;1.75;;;1.73;;
13406;SDS011;6774;48.208;10.766;2023-06-10T10:56:04;2.20;;;2.10;;
13406;SDS011;6774;48.208;10.766;2023-06-10T10:58:34;2.40;;;1.70;;
13406;SDS011;6774;48.208;10.766;2023-06-10T11:01:09;3.92;;;2.25;;
13406;SDS011;6774;48.208;10.766;2023-06-10T11:03:43;2.30;;;2.20;;
13406;SDS011;6774;48.208;10.766;2023-06-10T11:06:13;2.78;;;2.40;;
13406;SDS011;6774;48.208;10.766;2023-06-10T11:08:46;2.75;;;2.65;;
13406;SDS011;6774;48.208;10.766;2023-06-10T11:11:18;2.58;;;2.47;;
13406;SDS011;6774;48.208;10.766;2023-06-10T11:16:53;1.75;;;1.75;;
13406;SDS011;6774;48.208;10.766;2023-06-10T11:19:33;2.08;;;1.98;;
13406;SDS011;6774;48.208;10.766;2023-06-10T11:22:02;3.22;;;3.03;;
13406;SDS011;6774;48.208;10.766;2023-06-10T11:24:31;2.50;;;2.40;;
13406;SDS011;6774;48.208;10.766;2023-06-10T11:27:14;1.90;;;1.80;;
13406;SDS011;6774;48.208;10.766;2023-06-10T11:30:00;2.72;;;2.60;;
13406;SDS011;6774;48.208;10.766;2023-06-10T11:32:46;2.17;;;2.08;;
13406;SDS011;6774;48.208;10.766;2023-06-10T11:35:20;2.63;;;2.53;;
13406;SDS011;6774;48.208;10.766;2023-06-10T11:37:51;3.13;;;3.03;;
13406;SDS011;6774;48.208;10.766;2023-06-10T11:40:19;3.00;;;2.90;;
13406;SDS011;6774;48.208;10.766;2023-06-10T11:42:46;2.60;;;2.50;;
13406;SDS011;6774;48.208;10.766;2023-06-10T11:45:14;2.30;;;2.20;;
13406;SDS011;6774;48.208;10.766;2023-06-10T11:47:55;2.50;;;2.30;;
13406;SDS011;6774;48.208;10.766;2023-06-10T11:50:31;3.17;;;3.05;;
13406;SDS011;6774;48.208;10.766;2023-06-10T11:53:00;2.65;;;2.55;;
13406;SDS011;6774;48.208;10.766;2023-06-10T11:55:40;2.13;;;2.03;;
13406;SDS011;6774;48.208;10.766;2023-06-10T11:58:14;2.47;;;2.38;;
13406;SDS011;6774;48.208;10.766;2023-06-10T12:00:46;2.47;;;2.38;;
13406;SDS011;6774;48.208;10.766;2023-06-10T12:03:14;2.85;;;2.72;;
13406;SDS011;6774;48.208;10.766;2023-06-10T12:05:55;3.58;;;3.40;;
13406;SDS011;6774;48.208;10.766;2023-06-10T12:08:24;3.03;;;2.92;;
13406;SDS011;6774;48.208;10.766;2023-06-10T12:10:52;2.97;;;2.88;;
13406;SDS011;6774;48.208;10.766;2023-06-10T12:13:20;2.90;;;2.80;;
13406;SDS011;6774;48.208;10.766;2023-06-10T12:15:49;3.03;;;2.92;;
13406;SDS011;6774;48.208;10.766;2023-06-10T12:18:17;2.50;;;2.40;;
13406;SDS011;6774;48.208;10.766;2023-06-10T12:20:45;3.17;;;2.97;;
13406;SDS011;6774;48.208;10.766;2023-06-10T12:23:16;2.65;;;2.55;;
13406;SDS011;6774;48.208;10.766;2023-06-10T12:25:51;3.38;;;3.17;;
13406;SDS011;6774;48.208;10.766;2023-06-10T12:28:23;3.72;;;2.20;;
13406;SDS011;6774;48.208;10.766;2023-06-10T12:30:51;2.95;;;2.67;;
13406;SDS011;6774;48.208;10.766;2023-06-10T12:33:34;2.95;;;2.85;;
13406;SDS011;6774;48.208;10.766;2023-06-10T12:36:02;6.18;;;3.40;;
13406;SDS011;6774;48.208;10.766;2023-06-10T12:38:32;2.05;;;1.95;;
13406;SDS011;6774;48.208;10.766;2023-06-10T12:41:00;2.35;;;2.25;;
13406;SDS011;6774;48.208;10.766;2023-06-10T12:43:28;4.10;;;2.85;;
13406;SDS011;6774;48.208;10.766;2023-06-10T12:46:07;2.58;;;2.47;;
13406;SDS011;6774;48.208;10.766;2023-06-10T12:48:36;3.13;;;2.92;;
13406;SDS011;6774;48.208;10.766;2023-06-10T12:51:17;3.42;;;3.30;;
13406;SDS011;6774;48.208;10.766;2023-06-10T12:53:46;2.50;;;2.40;;
13406;SDS011;6774;48.208;10.766;2023-06-10T12:56:13;2.15;;;2.05;;
13406;SDS011;6774;48.208;10.766;2023-06-10T12:58:41;2.40;;;2.30;;
13406;SDS011;6774;48.208;10.766;2023-06-10T13:01:12;2.55;;;2.45;;
13406;SDS011;6774;48.208;10.766;2023-06-10T13:03:39;3.47;;;3.38;;
13406;SDS011;6774;48.208;10.766;2023-06-10T13:06:07;2.80;;;2.70;;
13406;SDS011;6774;48.208;10.766;2023-06-10T13:08:35;2.35;;;2.25;;
13406;SDS011;6774;48.208;10.766;2023-06-10T13:11:04;3.35;;;3.20;;
13406;SDS011;6774;48.208;10.766;2023-06-10T13:13:33;3.97;;;3.78;;
13406;SDS011;6774;48.208;10.766;2023-06-10T13:16:04;4.40;;;4.20;;
13406;SDS011;6774;48.208;10.766;2023-06-10T13:18:33;3.20;;;3.10;;
13406;SDS011;6774;48.208;10.766;2023-06-10T13:21:03;4.05;;;3.85;;
13406;SDS011;6774;48.208;10.766;2023-06-10T13:23:31;3.78;;;3.63;;
13406;SDS011;6774;48.208;10.766;2023-06-10T13:26:00;3.58;;;3.38;;
13406;SDS011;6774;48.208;10.766;2023-06-10T13:28:31;2.88;;;2.78;;
13406;SDS011;6774;48.208;10.766;2023-06-10T13:31:01;3.15;;;2.92;;
13406;SDS011;6774;48.208;10.766;2023-06-10T13:33:29;2.80;;;2.70;;
13406;SDS011;6774;48.208;10.766;2023-06-10T13:35:57;3.83;;;3.63;;
13406;SDS011;6774;48.208;10.766;2023-06-10T13:38:25;3.40;;;3.10;;
13406;SDS011;6774;48.208;10.766;2023-06-10T13:40:52;3.22;;;3.03;;
13406;SDS011;6774;48.208;10.766;2023-06-10T13:43:20;5.03;;;3.80;;
13406;SDS011;6774;48.208;10.766;2023-06-10T13:45:49;4.10;;;3.92;;
13406;SDS011;6774;48.208;10.766;2023-06-10T13:48:17;3.75;;;3.65;;
13406;SDS011;6774;48.208;10.766;2023-06-10T13:50:44;3.83;;;3.63;;
13406;SDS011;6774;48.208;10.766;2023-06-10T13:53:12;4.03;;;3.80;;
13406;SDS011;6774;48.208;10.766;2023-06-10T13:55:41;2.33;;;2.22;;
13406;SDS011;6774;48.208;10.766;2023-06-10T13:58:08;2.92;;;2.83;;
13406;SDS011;6774;48.208;10.766;2023-06-10T14:00:36;3.10;;;2.97;;
13406;SDS011;6774;48.208;10.766;2023-06-10T14:03:05;3.80;;;3.60;;
13406;SDS011;6774;48.208;10.766;2023-06-10T14:05:33;3.90;;;3.75;;
13406;SDS011;6774;48.208;10.766;2023-06-10T14:08:01;2.55;;;2.40;;
13406;SDS011;6774;48.208;10.766;2023-06-10T14:10:29;3.38;;;3.28;;
13406;SDS011;6774;48.208;10.766;2023-06-10T14:12:57;2.88;;;2.78;;
13406;SDS011;6774;48.208;10.766;2023-06-10T14:15:24;3.25;;;2.70;;
13406;SDS011;6774;48.208;10.766;2023-06-10T14:17:52;3.60;;;3.40;;
13406;SDS011;6774;48.208;10.766;2023-06-10T14:20:21;2.90;;;2.70;;
13406;SDS011;6774;48.208;10.766;2023-06-10T14:22:49;2.67;;;2.50;;
13406;SDS011;6774;48.208;10.766;2023-06-10T14:25:17;2.83;;;2.63;;
13406;SDS011;6774;48.208;10.766;2023-06-10T14:27:45;3.05;;;2.95;;
13406;SDS011;6774;48.208;10.766;2023-06-10T14:30:13;2.72;;;2.60;;
13406;SDS011;6774;48.208;10.766;2023-06-10T14:32:41;2.75;;;2.65;;
13406;SDS011;6774;48.208;10.766;2023-06-10T14:35:10;3.25;;;3.13;;
13406;SDS011;6774;48.208;10.766;2023-06-10T14:37:39;2.88;;;2.78;;
13406;SDS011;6774;48.208;10.766;2023-06-10T14:40:07;2.70;;;2.60;;
13406;SDS011;6774;48.208;10.766;2023-06-10T14:42:36;2.75;;;2.65;;
13406;SDS011;6774;48.208;10.766;2023-06-10T14:45:04;2.97;;;2.80;;
13406;SDS011;6774;48.208;10.766;2023-06-10T14:47:33;2.13;;;2.03;;
13406;SDS011;6774;48.208;10.766;2023-06-10T14:50:01;2.35;;;2.25;;
13406;SDS011;6774;48.208;10.766;2023-06-10T14:52:28;3.00;;;2.90;;
13406;SDS011;6774;48.208;10.766;2023-06-10T14:54:58;2.20;;;2.10;;
13406;SDS011;6774;48.208;10.766;2023-06-10T14:57:25;2.65;;;2.55;;
13406;SDS011;6774;48.208;10.766;2023-06-10T14:59:53;2.45;;;2.35;;
13406;SDS011;6774;48.208;10.766;2023-06-10T15:02:22;3.20;;;3.00;;
13406;SDS011;6774;48.208;10.766;2023-06-10T15:04:50;1.85;;;1.75;;